Time,TemperatureF,DewpointF,PressureIn,WindDirection,WindDirectionDegrees,WindSpeedMPH,WindSpeedGustMPH,Humidity,HourlyPrecipIn,Conditions,Clouds,dailyrainin,SoftwareType,DateUTC
2013-11-29 00:01:00,27.7,22.6,30.38,South,180,0.0,2.3,81,0.00,OVC,,0.00,WeatherDisplay:10.37,2013-11-29 05:01:00,
2013-11-29 00:02:00,27.7,22.6,30.38,South,180,0.3,2.3,81,0.00,OVC,,0.00,WeatherDisplay:10.37,2013-11-29 05:02:00,
2013-11-29 00:04:00,27.7,22.6,30.38,South,180,1.4,3.6,81,0.00,OVC,,0.00,WeatherDisplay:10.37,2013-11-29 05:04:00,
2013-11-29 00:05:00,27.7,22.6,30.38,South,180,1.6,3.5,81,0.00,OVC,,0.00,WeatherDisplay:10.37,2013-11-29 05:05:00,
2013-11-29 00:10:00,27.7,22.6,30.38,SSW,202,3.1,4.6,81,0.00,OVC,,0.00,WeatherDisplay:10.37,2013-11-29 05:10:00,
2013-11-29 00:11:00,27.7,22.6,30.38,SSW,202,2.1,4.6,81,0.00,OVC,,0.00,WeatherDisplay:10.37,2013-11-29 05:11:00,
2013-11-29 00:16:00,27.7,22.6,30.38,SW,225,1.5,3.5,81,0.00,OVC,,0.00,WeatherDisplay:10.37,2013-11-29 05:16:00,
2013-11-29 00:21:00,27.7,22.3,30.38,SW,225,4.7,6.1,80,0.00,OVC,,0.00,WeatherDisplay:10.37,2013-11-29 05:21:00,
2013-11-29 00:26:00,27.7,22.6,30.38,SW,225,1.9,3.6,81,0.00,OVC,,0.00,WeatherDisplay:10.37,2013-11-29 05:26:00,
2013-11-29 00:31:00,27.7,22.6,30.37,SSE,158,2.8,4.6,81,0.00,OVC,,0.00,WeatherDisplay:10.37,2013-11-29 05:31:00,
2013-11-29 00:36:00,27.7,22.6,30.37,SSE,158,1.5,3.6,81,0.00,OVC,,0.00,WeatherDisplay:10.37,2013-11-29 05:36:00,
2013-11-29 00:41:00,27.7,22.6,30.38,WSW,248,3.7,4.6,81,0.00,OVC,,0.00,WeatherDisplay:10.37,2013-11-29 05:41:00,
2013-11-29 00:46:00,27.7,22.6,30.38,SE,135,2.9,4.6,81,0.00,OVC,,0.00,WeatherDisplay:10.37,2013-11-29 05:46:00,
2013-11-29 00:51:00,27.7,22.6,30.37,SE,135,0.7,3.5,81,0.00,OVC,,0.00,WeatherDisplay:10.37,2013-11-29 05:51:00,
2013-11-29 00:56:00,27.7,22.6,30.37,SE,135,2.0,4.6,81,0.00,OVC,,0.00,WeatherDisplay:10.37,2013-11-29 05:56:00,
2013-11-29 01:01:00,27.7,22.6,30.37,WNW,292,3.2,4.6,81,0.00,OVC,,0.00,WeatherDisplay:10.37,2013-11-29 06:01:00,
2013-11-29 01:06:00,27.9,22.5,30.38,SW,225,5.6,8.1,80,0.00,OVC,,0.00,WeatherDisplay:10.37,2013-11-29 06:06:00,
2013-11-29 01:11:00,27.9,22.5,30.38,SSW,202,3.0,8.1,80,0.00,OVC,,0.00,WeatherDisplay:10.37,2013-11-29 06:11:00,
2013-11-29 01:16:00,27.9,22.5,30.38,SSW,202,2.6,8.1,80,0.00,OVC,,0.00,WeatherDisplay:10.37,2013-11-29 06:16:00,
2013-11-29 01:21:00,27.9,22.5,30.38,SSW,202,6.9,8.1,80,0.00,OVC,,0.00,WeatherDisplay:10.37,2013-11-29 06:21:00,
2013-11-29 01:26:00,27.9,22.5,30.38,SSW,202,5.7,8.1,80,0.00,OVC,,0.00,WeatherDisplay:10.37,2013-11-29 06:26:00,
2013-11-29 01:31:00,27.9,22.5,30.38,SW,225,4.9,6.1,80,0.00,OVC,,0.00,WeatherDisplay:10.37,2013-11-29 06:31:00,
2013-11-29 01:36:00,27.9,22.5,30.38,WSW,248,4.4,7.0,80,0.00,OVC,,0.00,WeatherDisplay:10.37,2013-11-29 06:36:00,
2013-11-29 01:41:00,27.9,22.5,30.39,South,180,3.7,4.6,80,0.00,OVC,,0.00,WeatherDisplay:10.37,2013-11-29 06:41:00,
2013-11-29 01:46:00,27.9,22.5,30.39,South,180,1.3,3.5,80,0.00,OVC,,0.00,WeatherDisplay:10.37,2013-11-29 06:46:00,
2013-11-29 01:51:00,27.9,22.8,30.39,NNW,338,1.5,2.7,81,0.00,OVC,,0.00,WeatherDisplay:10.37,2013-11-29 06:51:00,
2013-11-29 01:56:00,27.9,22.8,30.39,SW,225,3.0,6.9,81,0.00,OVC,,0.00,WeatherDisplay:10.37,2013-11-29 06:56:00,
2013-11-29 02:01:00,27.9,22.8,30.39,SW,225,1.3,3.5,81,0.00,OVC,,0.00,WeatherDisplay:10.37,2013-11-29 07:01:00,
2013-11-29 02:06:00,27.9,23.1,30.39,NNW,338,2.1,4.6,82,0.00,OVC,,0.00,WeatherDisplay:10.37,2013-11-29 07:06:00,
2013-11-29 02:11:00,27.9,23.1,30.39,SSW,202,0.0,0.0,82,0.00,OVC,,0.00,WeatherDisplay:10.37,2013-11-29 07:11:00,
2013-11-29 02:16:00,27.5,22.7,30.39,WSW,248,2.7,4.6,82,0.00,OVC,,0.00,WeatherDisplay:10.37,2013-11-29 07:16:00,
2013-11-29 02:21:00,27.5,22.7,30.39,WSW,248,1.9,3.6,82,0.00,OVC,,0.00,WeatherDisplay:10.37,2013-11-29 07:21:00,
2013-11-29 02:26:00,27.7,22.9,30.39,WSW,248,0.0,0.0,82,0.00,OVC,,0.00,WeatherDisplay:10.37,2013-11-29 07:26:00,
2013-11-29 02:31:00,27.5,22.7,30.40,WSW,248,3.3,4.6,82,0.00,OVC,,0.00,WeatherDisplay:10.37,2013-11-29 07:31:00,
2013-11-29 02:36:00,27.7,22.9,30.40,WSW,248,5.0,7.0,82,0.00,OVC,,0.00,WeatherDisplay:10.37,2013-11-29 07:36:00,
2013-11-29 02:41:00,27.7,22.9,30.40,SW,225,3.0,3.6,82,0.00,OVC,,0.00,WeatherDisplay:10.37,2013-11-29 07:41:00,
2013-11-29 02:46:00,27.9,22.8,30.40,South,180,1.3,4.6,81,0.00,OVC,,0.00,WeatherDisplay:10.37,2013-11-29 07:46:00,
2013-11-29 02:51:00,27.9,23.1,30.41,South,180,1.1,3.6,82,0.00,OVC,,0.00,WeatherDisplay:10.37,2013-11-29 07:51:00,
2013-11-29 02:56:00,27.7,22.9,30.41,South,180,3.2,3.6,82,0.00,OVC,,0.00,WeatherDisplay:10.37,2013-11-29 07:56:00,
2013-11-29 03:01:00,27.7,23.2,30.41,South,180,0.0,3.5,83,0.00,OVC,,0.00,WeatherDisplay:10.37,2013-11-29 08:01:00,
2013-11-29 03:06:00,27.7,22.9,30.41,South,180,2.2,4.6,82,0.00,OVC,,0.00,WeatherDisplay:10.37,2013-11-29 08:06:00,
2013-11-29 03:11:00,27.7,23.2,30.41,South,180,0.0,3.5,83,0.00,OVC,,0.00,WeatherDisplay:10.37,2013-11-29 08:11:00,
2013-11-29 03:16:00,27.7,23.2,30.41,South,180,1.4,2.7,83,0.00,OVC,,0.00,WeatherDisplay:10.37,2013-11-29 08:16:00,
2013-11-29 03:21:00,27.7,22.9,30.41,South,180,3.0,3.6,82,0.00,OVC,,0.00,WeatherDisplay:10.37,2013-11-29 08:21:00,
2013-11-29 03:26:00,27.7,22.9,30.41,South,180,0.8,3.6,82,0.00,OVC,,0.00,WeatherDisplay:10.37,2013-11-29 08:26:00,
2013-11-29 03:31:00,27.7,22.9,30.42,NW,315,1.7,4.6,82,0.00,OVC,,0.00,WeatherDisplay:10.37,2013-11-29 08:31:00,
2013-11-29 03:36:00,27.7,22.9,30.42,NW,315,2.8,3.6,82,0.00,OVC,,0.00,WeatherDisplay:10.37,2013-11-29 08:36:00,
2013-11-29 03:41:00,27.7,22.9,30.41,NW,315,3.5,4.6,82,0.00,OVC,,0.00,WeatherDisplay:10.37,2013-11-29 08:41:00,
2013-11-29 03:46:00,27.7,22.9,30.41,NW,315,0.1,4.6,82,0.00,OVC,,0.00,WeatherDisplay:10.37,2013-11-29 08:46:00,
2013-11-29 03:51:00,27.7,22.9,30.41,NW,315,0.0,0.0,82,0.00,OVC,,0.00,WeatherDisplay:10.37,2013-11-29 08:51:00,
2013-11-29 03:56:00,27.7,22.9,30.41,NW,315,0.6,3.5,82,0.00,OVC,,0.00,WeatherDisplay:10.37,2013-11-29 08:56:00,
2013-11-29 04:01:00,27.7,22.9,30.41,NW,315,0.0,0.0,82,0.00,OVC,,0.00,WeatherDisplay:10.37,2013-11-29 09:01:00,
2013-11-29 04:06:00,27.7,22.9,30.42,NW,315,0.0,0.0,82,0.00,OVC,,0.00,WeatherDisplay:10.37,2013-11-29 09:06:00,
2013-11-29 04:11:00,27.5,22.7,30.42,NW,315,0.0,0.0,82,0.00,OVC,,0.00,WeatherDisplay:10.37,2013-11-29 09:11:00,
2013-11-29 04:16:00,27.5,22.7,30.42,NW,315,0.1,2.3,82,0.00,OVC,,0.00,WeatherDisplay:10.37,2013-11-29 09:16:00,
2013-11-29 04:21:00,27.5,22.7,30.42,NW,315,0.0,0.0,82,0.00,OVC,,0.00,WeatherDisplay:10.37,2013-11-29 09:21:00,
2013-11-29 04:26:00,27.5,23.0,30.42,NW,315,0.0,0.0,83,0.00,OVC,,0.00,WeatherDisplay:10.37,2013-11-29 09:26:00,
2013-11-29 04:31:00,27.5,22.7,30.42,NW,315,0.0,2.3,82,0.00,OVC,,0.00,WeatherDisplay:10.37,2013-11-29 09:31:00,
2013-11-29 04:36:00,27.3,22.5,30.42,NW,315,0.0,0.0,82,0.00,OVC,,0.00,WeatherDisplay:10.37,2013-11-29 09:36:00,
2013-11-29 04:41:00,27.1,22.6,30.42,NW,315,0.0,0.0,83,0.00,OVC,,0.00,WeatherDisplay:10.37,2013-11-29 09:41:00,
2013-11-29 04:46:00,27.0,22.5,30.42,NW,315,0.0,2.3,83,0.00,OVC,,0.00,WeatherDisplay:10.37,2013-11-29 09:46:00,
2013-11-29 04:51:00,27.0,23.4,30.43,NW,315,0.0,0.0,86,0.00,OVC,,0.00,WeatherDisplay:10.37,2013-11-29 09:51:00,
2013-11-29 04:56:00,27.0,23.1,30.43,NW,315,0.0,0.0,85,0.00,OVC,,0.00,WeatherDisplay:10.37,2013-11-29 09:56:00,
2013-11-29 05:01:00,26.8,22.9,30.43,NW,315,0.0,0.0,85,0.00,OVC,,0.00,WeatherDisplay:10.37,2013-11-29 10:01:00,
2013-11-29 05:06:00,26.6,22.7,30.43,NW,315,0.0,0.0,85,0.00,OVC,,0.00,WeatherDisplay:10.37,2013-11-29 10:06:00,
2013-11-29 05:11:00,26.6,22.7,30.43,NW,315,0.0,0.0,85,0.00,OVC,,0.00,WeatherDisplay:10.37,2013-11-29 10:11:00,
2013-11-29 05:17:00,26.6,23.0,30.44,NW,315,0.0,0.0,86,0.00,OVC,,0.00,WeatherDisplay:10.37,2013-11-29 10:17:00,
2013-11-29 05:22:00,26.6,23.0,30.44,NW,315,0.0,0.0,86,0.00,OVC,,0.00,WeatherDisplay:10.37,2013-11-29 10:22:00,
2013-11-29 05:27:00,26.6,23.0,30.44,NW,315,0.0,0.0,86,0.00,OVC,,0.00,WeatherDisplay:10.37,2013-11-29 10:27:00,
2013-11-29 05:32:00,26.4,23.6,30.44,NW,315,0.0,0.0,89,0.00,OVC,,0.00,WeatherDisplay:10.37,2013-11-29 10:32:00,
2013-11-29 05:37:00,26.2,23.4,30.44,NW,315,0.0,0.0,89,0.00,OVC,,0.00,WeatherDisplay:10.37,2013-11-29 10:37:00,
2013-11-29 05:42:00,26.2,23.4,30.44,NW,315,0.0,0.0,89,0.00,OVC,,0.00,WeatherDisplay:10.37,2013-11-29 10:42:00,
2013-11-29 05:47:00,26.1,23.3,30.44,NW,315,0.0,0.0,89,0.00,OVC,,0.00,WeatherDisplay:10.37,2013-11-29 10:47:00,
2013-11-29 05:52:00,25.9,23.4,30.45,NW,315,0.0,0.0,90,0.00,OVC,,0.00,WeatherDisplay:10.37,2013-11-29 10:52:00,
2013-11-29 05:57:00,25.7,23.2,30.45,NW,315,0.0,0.0,90,0.00,OVC,,0.00,WeatherDisplay:10.37,2013-11-29 10:57:00,
2013-11-29 06:02:00,25.7,23.2,30.45,NW,315,0.0,0.0,90,0.00,BKN,,0.00,WeatherDisplay:10.37,2013-11-29 11:02:00,
2013-11-29 06:07:00,25.5,23.0,30.46,NW,315,0.0,0.0,90,0.00,BKN,,0.00,WeatherDisplay:10.37,2013-11-29 11:07:00,
2013-11-29 06:12:00,25.2,22.9,30.46,NW,315,0.0,0.0,91,0.00,BKN,,0.00,WeatherDisplay:10.37,2013-11-29 11:12:00,
2013-11-29 06:17:00,25.2,23.2,30.46,NW,315,0.0,0.0,92,0.00,BKN,,0.00,WeatherDisplay:10.37,2013-11-29 11:17:00,
2013-11-29 06:22:00,25.0,23.0,30.46,NW,315,0.0,0.0,92,0.00,BKN,,0.00,WeatherDisplay:10.37,2013-11-29 11:22:00,
2013-11-29 06:27:00,25.0,23.0,30.47,NW,315,0.0,0.0,92,0.00,BKN,,0.00,WeatherDisplay:10.37,2013-11-29 11:27:00,
2013-11-29 06:32:00,24.8,22.8,30.47,NW,315,0.0,0.0,92,0.00,BKN,,0.00,WeatherDisplay:10.37,2013-11-29 11:32:00,
2013-11-29 06:37:00,24.6,22.6,30.47,NW,315,0.0,0.0,92,0.00,BKN,,0.00,WeatherDisplay:10.37,2013-11-29 11:37:00,
2013-11-29 06:42:00,24.4,22.4,30.48,NW,315,0.0,0.0,92,0.00,BKN,,0.00,WeatherDisplay:10.37,2013-11-29 11:42:00,
2013-11-29 06:47:00,24.1,22.1,30.48,NW,315,0.0,0.0,92,0.00,BKN,,0.00,WeatherDisplay:10.37,2013-11-29 11:47:00,
2013-11-29 06:52:00,23.9,21.9,30.48,NW,315,0.0,0.0,92,0.00,BKN,,0.00,WeatherDisplay:10.37,2013-11-29 11:52:00,
2013-11-29 06:57:00,23.5,22.0,30.48,NW,315,0.0,0.0,94,0.00,BKN,,0.00,WeatherDisplay:10.37,2013-11-29 11:57:00,
2013-11-29 07:02:00,23.2,22.0,30.48,NW,315,0.0,0.0,95,0.00,BKN,,0.00,WeatherDisplay:10.37,2013-11-29 12:02:00,
2013-11-29 07:07:00,23.0,21.8,30.48,NW,315,0.0,0.0,95,0.00,BKN,,0.00,WeatherDisplay:10.37,2013-11-29 12:07:00,
2013-11-29 07:12:00,23.0,21.8,30.48,NW,315,0.0,0.0,95,0.00,BKN,,0.00,WeatherDisplay:10.37,2013-11-29 12:12:00,
2013-11-29 07:17:00,22.5,21.5,30.49,NW,315,0.0,0.0,96,0.00,BKN,,0.00,WeatherDisplay:10.37,2013-11-29 12:17:00,
2013-11-29 07:22:00,22.3,21.3,30.49,NW,315,0.0,0.0,96,0.00,BKN,,0.00,WeatherDisplay:10.37,2013-11-29 12:22:00,
2013-11-29 07:27:00,22.1,21.1,30.49,NW,315,0.0,0.0,96,0.00,BKN,,0.00,WeatherDisplay:10.37,2013-11-29 12:27:00,
2013-11-29 07:32:00,21.9,20.9,30.49,NW,315,0.0,0.0,96,0.00,BKN,,0.00,WeatherDisplay:10.37,2013-11-29 12:32:00,
2013-11-29 07:37:00,21.9,21.2,30.49,NW,315,0.0,0.0,97,0.00,BKN,,0.00,WeatherDisplay:10.37,2013-11-29 12:37:00,
2013-11-29 07:42:00,21.7,21.0,30.50,NW,315,0.0,0.0,97,0.00,BKN,,0.00,WeatherDisplay:10.37,2013-11-29 12:42:00,
2013-11-29 07:47:00,21.6,20.9,30.50,NW,315,0.0,0.0,97,0.00,BKN,,0.00,WeatherDisplay:10.37,2013-11-29 12:47:00,
2013-11-29 07:52:00,21.6,20.9,30.50,NW,315,0.0,0.0,97,0.00,BKN,,0.00,WeatherDisplay:10.37,2013-11-29 12:52:00,
2013-11-29 07:57:00,21.4,20.9,30.50,NW,315,0.0,0.0,98,0.00,BKN,,0.00,WeatherDisplay:10.37,2013-11-29 12:57:00,
2013-11-29 08:02:00,21.4,20.9,30.50,NW,315,0.0,0.0,98,0.00,SCT,,0.00,WeatherDisplay:10.37,2013-11-29 13:02:00,
2013-11-29 08:07:00,21.6,21.1,30.51,NW,315,0.0,0.0,98,0.00,SCT,,0.00,WeatherDisplay:10.37,2013-11-29 13:07:00,
2013-11-29 08:12:00,21.6,21.1,30.51,NW,315,0.0,0.0,98,0.00,SCT,,0.00,WeatherDisplay:10.37,2013-11-29 13:12:00,
2013-11-29 08:17:00,22.1,21.6,30.51,NW,315,0.0,0.0,98,0.00,SCT,,0.00,WeatherDisplay:10.37,2013-11-29 13:17:00,
2013-11-29 08:22:00,22.1,21.6,30.51,NW,315,0.0,0.0,98,0.00,SCT,,0.00,WeatherDisplay:10.37,2013-11-29 13:22:00,
2013-11-29 08:27:00,22.5,22.0,30.51,NW,315,0.0,0.0,98,0.00,SCT,,0.00,WeatherDisplay:10.37,2013-11-29 13:27:00,
2013-11-29 08:32:00,22.8,22.3,30.51,NW,315,0.0,0.0,98,0.00,SCT,,0.00,WeatherDisplay:10.37,2013-11-29 13:32:00,
2013-11-29 08:37:00,23.0,22.5,30.51,NW,315,0.0,0.0,98,0.00,SCT,,0.00,WeatherDisplay:10.37,2013-11-29 13:37:00,
2013-11-29 08:42:00,23.2,22.7,30.52,NW,315,0.0,0.0,98,0.00,SCT,,0.00,WeatherDisplay:10.37,2013-11-29 13:42:00,
2013-11-29 08:47:00,23.5,23.0,30.52,NW,315,0.0,0.0,98,0.00,SCT,,0.00,WeatherDisplay:10.37,2013-11-29 13:47:00,
2013-11-29 08:52:00,25.0,24.0,30.53,NW,315,0.0,0.0,96,0.00,SCT,,0.00,WeatherDisplay:10.37,2013-11-29 13:52:00,
2013-11-29 08:57:00,25.5,24.0,30.53,NW,315,0.0,0.0,94,0.00,SCT,,0.00,WeatherDisplay:10.37,2013-11-29 13:57:00,
2013-11-29 09:02:00,25.0,24.3,30.53,NW,315,0.3,2.3,97,0.00,FEW,,0.00,WeatherDisplay:10.37,2013-11-29 14:02:00,
2013-11-29 09:07:00,27.5,24.7,30.53,NW,315,0.0,0.0,89,0.00,FEW,,0.00,WeatherDisplay:10.37,2013-11-29 14:07:00,
2013-11-29 09:12:00,28.0,24.4,30.53,NW,315,3.1,3.6,86,0.00,FEW,,0.00,WeatherDisplay:10.37,2013-11-29 14:12:00,
2013-11-29 09:17:00,28.9,24.4,30.53,NW,315,0.0,3.5,83,0.00,FEW,,0.00,WeatherDisplay:10.37,2013-11-29 14:17:00,
2013-11-29 09:22:00,29.5,24.4,30.53,NW,315,0.0,0.0,81,0.00,FEW,,0.00,WeatherDisplay:10.37,2013-11-29 14:22:00,
2013-11-29 09:27:00,30.6,24.2,30.53,NW,315,1.0,3.6,77,0.00,FEW,,0.00,WeatherDisplay:10.37,2013-11-29 14:27:00,
2013-11-29 09:32:00,30.4,23.7,30.53,South,180,2.4,5.3,76,0.00,FEW,,0.00,WeatherDisplay:10.37,2013-11-29 14:32:00,
2013-11-29 09:37:00,30.4,23.7,30.53,NW,315,6.3,7.0,76,0.00,FEW,,0.00,WeatherDisplay:10.37,2013-11-29 14:37:00,
2013-11-29 09:42:00,30.6,23.9,30.54,WSW,248,3.9,6.9,76,0.00,FEW,,0.00,WeatherDisplay:10.37,2013-11-29 14:42:00,
2013-11-29 09:47:00,30.7,23.1,30.54,NNW,338,1.7,6.9,73,0.00,FEW,,0.00,WeatherDisplay:10.37,2013-11-29 14:47:00,
2013-11-29 09:52:00,30.7,23.1,30.55,SW,225,3.4,6.9,73,0.00,FEW,,0.00,WeatherDisplay:10.37,2013-11-29 14:52:00,
2013-11-29 09:57:00,31.6,23.3,30.55,East,90,3.2,6.9,71,0.00,FEW,,0.00,WeatherDisplay:10.37,2013-11-29 14:57:00,
2013-11-29 10:02:00,31.5,23.2,30.55,NNE,22,4.3,7.8,71,0.00,FEW,,0.00,WeatherDisplay:10.37,2013-11-29 15:02:00,
2013-11-29 10:07:00,31.6,22.9,30.55,NNE,22,6.8,8.1,70,0.00,FEW,,0.00,WeatherDisplay:10.37,2013-11-29 15:07:00,
2013-11-29 10:12:00,31.8,23.1,30.55,NE,45,3.1,5.8,70,0.00,FEW,,0.00,WeatherDisplay:10.37,2013-11-29 15:12:00,
2013-11-29 10:17:00,31.6,22.9,30.55,North,360,3.6,5.8,70,0.00,FEW,,0.00,WeatherDisplay:10.37,2013-11-29 15:17:00,
2013-11-29 10:22:00,32.2,23.2,30.55,NE,45,5.5,9.2,69,0.00,FEW,,0.00,WeatherDisplay:10.37,2013-11-29 15:22:00,
2013-11-29 10:27:00,32.7,23.3,30.56,ENE,68,4.7,5.8,68,0.00,FEW,,0.00,WeatherDisplay:10.37,2013-11-29 15:27:00,
2013-11-29 10:32:00,32.2,22.8,30.56,NNW,338,2.9,6.9,68,0.00,FEW,,0.00,WeatherDisplay:10.37,2013-11-29 15:32:00,
2013-11-29 10:37:00,32.5,23.5,30.56,WSW,248,3.6,5.8,69,0.00,FEW,,0.00,WeatherDisplay:10.37,2013-11-29 15:37:00,
2013-11-29 10:42:00,32.7,22.9,30.56,NW,315,3.5,5.8,67,0.00,FEW,,0.00,WeatherDisplay:10.37,2013-11-29 15:42:00,
2013-11-29 10:47:00,32.7,23.3,30.56,WSW,248,5.0,7.0,68,0.00,FEW,,0.00,WeatherDisplay:10.37,2013-11-29 15:47:00,
2013-11-29 10:52:00,32.9,22.8,30.57,WSW,248,7.0,7.8,66,0.00,FEW,,0.00,WeatherDisplay:10.37,2013-11-29 15:52:00,
2013-11-29 10:57:00,32.9,23.1,30.57,WNW,292,6.3,8.7,67,0.00,FEW,,0.00,WeatherDisplay:10.37,2013-11-29 15:57:00,
2013-11-29 11:02:00,32.7,22.9,30.57,WNW,292,4.0,5.8,67,0.00,FEW,,0.00,WeatherDisplay:10.37,2013-11-29 16:02:00,
2013-11-29 11:07:00,33.1,23.3,30.57,NW,315,6.2,7.0,67,0.00,FEW,,0.00,WeatherDisplay:10.37,2013-11-29 16:07:00,
2013-11-29 11:12:00,33.8,22.9,30.57,NNE,22,4.8,9.2,64,0.00,FEW,,0.00,WeatherDisplay:10.37,2013-11-29 16:12:00,
2013-11-29 11:17:00,32.7,21.5,30.56,NNE,22,4.8,6.1,63,0.00,FEW,,0.00,WeatherDisplay:10.37,2013-11-29 16:17:00,
2013-11-29 11:22:00,33.3,21.3,30.56,ENE,68,4.7,8.1,61,0.00,FEW,,0.00,WeatherDisplay:10.37,2013-11-29 16:22:00,
2013-11-29 11:27:00,34.2,21.4,30.56,SSE,158,1.5,4.6,59,0.00,FEW,,0.00,WeatherDisplay:10.37,2013-11-29 16:27:00,
2013-11-29 11:32:00,34.0,21.2,30.56,NNE,22,3.5,6.9,59,0.00,FEW,,0.00,WeatherDisplay:10.37,2013-11-29 16:32:00,
2013-11-29 11:37:00,34.2,21.4,30.56,West,270,6.1,8.1,59,0.00,FEW,,0.00,WeatherDisplay:10.37,2013-11-29 16:37:00,
2013-11-29 11:42:00,34.0,21.6,30.56,NW,315,0.8,6.9,60,0.00,FEW,,0.00,WeatherDisplay:10.37,2013-11-29 16:42:00,
2013-11-29 11:47:00,34.2,21.4,30.56,NW,315,4.7,8.1,59,0.00,FEW,,0.00,WeatherDisplay:10.37,2013-11-29 16:47:00,
2013-11-29 11:52:00,33.8,21.0,30.56,ENE,68,2.0,4.6,59,0.00,FEW,,0.00,WeatherDisplay:10.37,2013-11-29 16:52:00,
2013-11-29 11:57:00,34.0,21.6,30.56,North,360,3.3,5.8,60,0.00,FEW,,0.00,WeatherDisplay:10.37,2013-11-29 16:57:00,
2013-11-29 12:02:00,34.3,21.0,30.56,NNE,22,4.1,6.9,58,0.00,FEW,,0.00,WeatherDisplay:10.37,2013-11-29 17:02:00,
2013-11-29 12:07:00,33.8,21.0,30.56,West,270,5.6,6.1,59,0.00,FEW,,0.00,WeatherDisplay:10.37,2013-11-29 17:07:00,
2013-11-29 12:12:00,34.2,20.9,30.56,SW,225,4.6,6.1,58,0.00,BKN,,0.00,WeatherDisplay:10.37,2013-11-29 17:12:00,
2013-11-29 12:17:00,34.9,21.2,30.56,West,270,2.6,6.1,57,0.00,BKN,,0.00,WeatherDisplay:10.37,2013-11-29 17:17:00,
2013-11-29 12:22:00,34.0,20.8,30.56,WSW,248,4.2,4.6,58,0.00,BKN,,0.00,WeatherDisplay:10.37,2013-11-29 17:22:00,
2013-11-29 12:27:00,33.3,20.9,30.56,WSW,248,2.4,4.6,60,0.00,BKN,,0.00,WeatherDisplay:10.37,2013-11-29 17:27:00,
2013-11-29 12:32:00,33.4,21.4,30.56,ENE,68,2.0,6.1,61,0.00,BKN,,0.00,WeatherDisplay:10.37,2013-11-29 17:32:00,
2013-11-29 12:37:00,33.8,21.0,30.56,ENE,68,7.8,8.1,59,0.00,BKN,,0.00,WeatherDisplay:10.37,2013-11-29 17:37:00,
2013-11-29 12:42:00,33.1,20.7,30.56,NE,45,6.8,8.1,60,0.00,BKN,,0.00,WeatherDisplay:10.37,2013-11-29 17:42:00,
2013-11-29 12:47:00,33.3,20.5,30.56,NE,45,0.4,5.8,59,0.00,BKN,,0.00,WeatherDisplay:10.37,2013-11-29 17:47:00,
2013-11-29 12:52:00,34.5,21.6,30.56,NE,45,0.3,4.6,59,0.00,BKN,,0.00,WeatherDisplay:10.37,2013-11-29 17:52:00,
2013-11-29 12:57:00,34.7,21.4,30.56,NNW,338,4.6,5.8,58,0.00,BKN,,0.00,WeatherDisplay:10.37,2013-11-29 17:57:00,
2013-11-29 13:02:00,34.0,21.2,30.55,NNW,338,2.9,5.8,59,0.00,BKN,,0.00,WeatherDisplay:10.37,2013-11-29 18:02:00,
2013-11-29 13:07:00,34.2,20.9,30.55,NE,45,4.1,6.9,58,0.00,BKN,,0.00,WeatherDisplay:10.37,2013-11-29 18:07:00,
2013-11-29 13:12:00,34.5,21.6,30.55,NE,45,3.8,4.6,59,0.00,BKN,,0.00,WeatherDisplay:10.37,2013-11-29 18:12:00,
2013-11-29 13:17:00,34.0,20.8,30.55,NE,45,6.8,8.1,58,0.00,BKN,,0.00,WeatherDisplay:10.37,2013-11-29 18:17:00,
2013-11-29 13:22:00,34.0,21.2,30.55,NE,45,0.9,4.6,59,0.00,BKN,,0.00,WeatherDisplay:10.37,2013-11-29 18:22:00,
2013-11-29 13:27:00,34.3,21.0,30.55,NE,45,2.5,4.6,58,0.00,BKN,,0.00,WeatherDisplay:10.37,2013-11-29 18:27:00,
2013-11-29 13:32:00,34.7,21.4,30.55,NW,315,6.5,9.2,58,0.00,BKN,,0.00,WeatherDisplay:10.37,2013-11-29 18:32:00,
2013-11-29 13:37:00,34.5,21.2,30.55,NNW,338,4.2,6.1,58,0.00,BKN,,0.00,WeatherDisplay:10.37,2013-11-29 18:37:00,
2013-11-29 13:42:00,34.7,21.4,30.55,WNW,292,5.8,7.0,58,0.00,BKN,,0.00,WeatherDisplay:10.37,2013-11-29 18:42:00,
2013-11-29 13:47:00,34.5,21.2,30.55,NNW,338,5.1,6.1,58,0.00,BKN,,0.00,WeatherDisplay:10.37,2013-11-29 18:47:00,
2013-11-29 13:52:00,34.3,21.0,30.55,WSW,248,1.2,5.8,58,0.00,BKN,,0.00,WeatherDisplay:10.37,2013-11-29 18:52:00,
2013-11-29 13:57:00,34.5,21.6,30.55,NNW,338,4.9,7.0,59,0.00,BKN,,0.00,WeatherDisplay:10.37,2013-11-29 18:57:00,
2013-11-29 14:02:00,34.5,21.2,30.55,NNE,22,2.7,6.9,58,0.00,BKN,,0.00,WeatherDisplay:10.37,2013-11-29 19:02:00,
2013-11-29 14:07:00,34.5,22.0,30.55,NE,45,1.5,5.8,60,0.00,BKN,,0.00,WeatherDisplay:10.37,2013-11-29 19:07:00,
2013-11-29 14:12:00,34.3,21.0,30.55,NNE,22,3.9,5.8,58,0.00,BKN,,0.00,WeatherDisplay:10.37,2013-11-29 19:12:00,
2013-11-29 14:17:00,34.3,21.0,30.55,NNE,22,3.9,4.6,58,0.00,BKN,,0.00,WeatherDisplay:10.37,2013-11-29 19:17:00,
2013-11-29 14:22:00,34.7,21.4,30.55,NE,45,5.5,7.0,58,0.00,BKN,,0.00,WeatherDisplay:10.37,2013-11-29 19:22:00,
2013-11-29 14:27:00,34.9,21.6,30.55,ENE,68,3.6,5.8,58,0.00,BKN,,0.00,WeatherDisplay:10.37,2013-11-29 19:27:00,
2013-11-29 14:32:00,35.2,21.5,30.55,ENE,68,5.9,9.2,57,0.00,BKN,,0.00,WeatherDisplay:10.37,2013-11-29 19:32:00,
2013-11-29 14:37:00,34.9,21.2,30.55,NE,45,5.8,7.8,57,0.00,BKN,,0.00,WeatherDisplay:10.37,2013-11-29 19:37:00,
2013-11-29 14:42:00,35.8,22.0,30.55,ENE,68,2.9,5.8,57,0.00,BKN,,0.00,WeatherDisplay:10.37,2013-11-29 19:42:00,
2013-11-29 14:47:00,36.1,21.9,30.55,East,90,4.8,6.9,56,0.00,BKN,,0.00,WeatherDisplay:10.37,2013-11-29 19:47:00,
2013-11-29 14:52:00,35.8,21.2,30.55,NE,45,5.7,7.0,55,0.00,BKN,,0.00,WeatherDisplay:10.37,2013-11-29 19:52:00,
2013-11-29 14:57:00,37.0,21.9,30.55,NE,45,2.8,9.5,54,0.00,BKN,,0.00,WeatherDisplay:10.37,2013-11-29 19:57:00,
2013-11-29 15:02:00,36.0,21.8,30.55,NNE,22,6.5,8.7,56,0.00,BKN,,0.00,WeatherDisplay:10.37,2013-11-29 20:02:00,
2013-11-29 15:07:00,35.8,21.6,30.55,ENE,68,7.1,8.1,56,0.00,BKN,,0.00,WeatherDisplay:10.37,2013-11-29 20:07:00,
2013-11-29 15:12:00,35.8,22.0,30.55,ENE,68,4.5,6.9,57,0.00,BKN,,0.00,WeatherDisplay:10.37,2013-11-29 20:12:00,
2013-11-29 15:17:00,35.2,21.5,30.55,NE,45,6.3,8.1,57,0.00,BKN,,0.00,WeatherDisplay:10.37,2013-11-29 20:17:00,
2013-11-29 15:22:00,35.2,21.5,30.55,ENE,68,3.1,7.0,57,0.00,BKN,,0.00,WeatherDisplay:10.37,2013-11-29 20:22:00,
2013-11-29 15:27:00,36.1,21.9,30.55,ENE,68,7.2,8.7,56,0.00,BKN,,0.00,WeatherDisplay:10.37,2013-11-29 20:27:00,
2013-11-29 15:32:00,36.3,21.7,30.55,NNE,22,3.4,6.9,55,0.00,BKN,,0.00,WeatherDisplay:10.37,2013-11-29 20:32:00,
2013-11-29 15:37:00,35.8,21.6,30.55,NNE,22,3.9,5.8,56,0.00,BKN,,0.00,WeatherDisplay:10.37,2013-11-29 20:37:00,
2013-11-29 15:42:00,35.8,22.0,30.55,ENE,68,4.1,7.0,57,0.00,BKN,,0.00,WeatherDisplay:10.37,2013-11-29 20:42:00,
2013-11-29 15:47:00,35.6,21.9,30.55,ENE,68,4.6,5.8,57,0.00,BKN,,0.00,WeatherDisplay:10.37,2013-11-29 20:47:00,
2013-11-29 15:52:00,35.1,21.8,30.56,NNE,22,3.9,4.6,58,0.00,BKN,,0.00,WeatherDisplay:10.37,2013-11-29 20:52:00,
2013-11-29 15:57:00,34.9,21.2,30.56,ENE,68,5.7,8.1,57,0.00,BKN,,0.00,WeatherDisplay:10.37,2013-11-29 20:57:00,
2013-11-29 16:02:00,34.5,21.2,30.56,NE,45,5.2,6.1,58,0.00,BKN,,0.00,WeatherDisplay:10.37,2013-11-29 21:02:00,
2013-11-29 16:07:00,34.5,22.0,30.56,NE,45,0.0,3.5,60,0.00,BKN,,0.00,WeatherDisplay:10.37,2013-11-29 21:07:00,
2013-11-29 16:12:00,34.2,21.4,30.56,NE,45,4.9,5.8,59,0.00,BKN,,0.00,WeatherDisplay:10.37,2013-11-29 21:12:00,
2013-11-29 16:17:00,34.0,21.6,30.56,East,90,4.3,6.1,60,0.00,BKN,,0.00,WeatherDisplay:10.37,2013-11-29 21:17:00,
2013-11-29 16:22:00,33.6,21.6,30.56,NNE,22,1.3,5.8,61,0.00,BKN,,0.00,WeatherDisplay:10.37,2013-11-29 21:22:00,
2013-11-29 16:27:00,33.4,21.4,30.56,NNE,22,4.8,5.8,61,0.00,BKN,,0.00,WeatherDisplay:10.37,2013-11-29 21:27:00,
2013-11-29 16:32:00,33.3,21.3,30.56,NNE,22,4.0,5.8,61,0.00,BKN,,0.00,WeatherDisplay:10.37,2013-11-29 21:32:00,
2013-11-29 16:37:00,32.9,21.7,30.56,NNE,22,0.0,2.3,63,0.00,BKN,,0.00,WeatherDisplay:10.37,2013-11-29 21:37:00,
2013-11-29 16:42:00,32.7,22.2,30.56,NNE,22,0.0,0.0,65,0.00,BKN,,0.00,WeatherDisplay:10.37,2013-11-29 21:42:00,
2013-11-29 16:47:00,31.8,21.7,30.56,NNE,22,0.8,2.7,66,0.00,BKN,,0.00,WeatherDisplay:10.37,2013-11-29 21:47:00,
2013-11-29 16:52:00,31.6,21.9,30.56,NNE,22,0.0,0.0,67,0.00,BKN,,0.00,WeatherDisplay:10.37,2013-11-29 21:52:00,
2013-11-29 16:57:00,30.9,21.9,30.56,NNE,22,0.0,0.0,69,0.00,BKN,,0.00,WeatherDisplay:10.37,2013-11-29 21:57:00,
2013-11-29 17:02:00,30.6,22.3,30.57,NNE,22,0.0,0.0,71,0.00,BKN,,0.00,WeatherDisplay:10.37,2013-11-29 22:02:00,
2013-11-29 17:07:00,30.2,21.9,30.57,NNE,22,0.0,0.0,71,0.00,BKN,,0.00,WeatherDisplay:10.37,2013-11-29 22:07:00,
2013-11-29 17:12:00,29.5,22.2,30.57,NNE,22,0.0,0.0,74,0.00,BKN,,0.00,WeatherDisplay:10.37,2013-11-29 22:12:00,
2013-11-29 17:17:00,28.9,22.0,30.57,NNE,22,0.0,0.0,75,0.00,BKN,,0.00,WeatherDisplay:10.37,2013-11-29 22:17:00,
2013-11-29 17:22:00,28.4,23.0,30.57,NNE,22,0.0,0.0,80,0.00,BKN,,0.00,WeatherDisplay:10.37,2013-11-29 22:22:00,
2013-11-29 17:27:00,28.0,22.6,30.57,NNE,22,3.0,3.6,80,0.00,BKN,,0.00,WeatherDisplay:10.37,2013-11-29 22:27:00,
2013-11-29 17:32:00,27.9,23.1,30.57,NNE,22,0.0,0.0,82,0.00,BKN,,0.00,WeatherDisplay:10.37,2013-11-29 22:32:00,
2013-11-29 17:37:00,27.5,23.3,30.57,NNE,22,0.0,0.0,84,0.00,BKN,,0.00,WeatherDisplay:10.37,2013-11-29 22:37:00,
2013-11-29 17:42:00,27.5,23.0,30.57,NNE,22,0.0,0.0,83,0.00,BKN,,0.00,WeatherDisplay:10.37,2013-11-29 22:42:00,
2013-11-29 17:47:00,27.3,22.8,30.57,NNE,22,0.0,0.0,83,0.00,BKN,,0.00,WeatherDisplay:10.37,2013-11-29 22:47:00,
2013-11-29 17:52:00,27.3,23.1,30.58,NNE,22,0.0,0.0,84,0.00,BKN,,0.00,WeatherDisplay:10.37,2013-11-29 22:52:00,
2013-11-29 17:57:00,27.1,23.2,30.58,NNE,22,0.0,0.0,85,0.00,BKN,,0.00,WeatherDisplay:10.37,2013-11-29 22:57:00,
2013-11-29 18:02:00,26.8,23.2,30.58,NNE,22,0.0,0.0,86,0.00,SCT,,0.00,WeatherDisplay:10.37,2013-11-29 23:02:00,
2013-11-29 18:07:00,26.4,22.8,30.58,NNE,22,0.0,0.0,86,0.00,SCT,,0.00,WeatherDisplay:10.37,2013-11-29 23:07:00,
2013-11-29 18:12:00,26.2,22.3,30.58,NNE,22,0.0,0.0,85,0.00,SCT,,0.00,WeatherDisplay:10.37,2013-11-29 23:12:00,
2013-11-29 18:18:00,25.9,22.0,30.58,NNE,22,1.1,2.3,85,0.00,SCT,,0.00,WeatherDisplay:10.37,2013-11-29 23:18:00,
2013-11-29 18:23:00,25.9,22.3,30.58,NNE,22,0.0,0.0,86,0.00,SCT,,0.00,WeatherDisplay:10.37,2013-11-29 23:23:00,
2013-11-29 18:28:00,25.9,22.8,30.58,NNE,22,0.0,0.0,88,0.00,SCT,,0.00,WeatherDisplay:10.37,2013-11-29 23:28:00,
2013-11-29 18:33:00,25.9,22.8,30.58,NNE,22,0.0,0.0,88,0.00,SCT,,0.00,WeatherDisplay:10.37,2013-11-29 23:33:00,
2013-11-29 18:38:00,25.9,22.8,30.59,NNE,22,0.0,0.0,88,0.00,SCT,,0.00,WeatherDisplay:10.37,2013-11-29 23:38:00,
2013-11-29 18:43:00,25.3,22.5,30.59,NNE,22,0.0,0.0,89,0.00,SCT,,0.00,WeatherDisplay:10.37,2013-11-29 23:43:00,
2013-11-29 18:48:00,25.2,22.4,30.59,NNE,22,0.0,0.0,89,0.00,SCT,,0.00,WeatherDisplay:10.37,2013-11-29 23:48:00,
2013-11-29 18:53:00,25.2,22.4,30.59,NNE,22,0.0,0.0,89,0.00,SCT,,0.00,WeatherDisplay:10.37,2013-11-29 23:53:00,
2013-11-29 18:58:00,25.0,22.2,30.59,NNE,22,0.0,0.0,89,0.00,SCT,,0.00,WeatherDisplay:10.37,2013-11-29 23:58:00,
2013-11-29 19:03:00,25.2,22.4,30.59,NNE,22,0.0,0.0,89,0.00,SCT,,0.00,WeatherDisplay:10.37,2013-11-30 00:03:00,
2013-11-29 19:08:00,24.8,22.0,30.59,NNE,22,0.0,0.0,89,0.00,SCT,,0.00,WeatherDisplay:10.37,2013-11-30 00:08:00,
2013-11-29 19:13:00,24.8,22.0,30.59,NNE,22,0.0,0.0,89,0.00,SCT,,0.00,WeatherDisplay:10.37,2013-11-30 00:13:00,
2013-11-29 19:18:00,24.4,21.9,30.59,NNE,22,0.0,0.0,90,0.00,SCT,,0.00,WeatherDisplay:10.37,2013-11-30 00:18:00,
2013-11-29 19:23:00,24.1,21.6,30.59,NNE,22,0.0,0.0,90,0.00,SCT,,0.00,WeatherDisplay:10.37,2013-11-30 00:23:00,
2013-11-29 19:28:00,23.9,21.4,30.60,NNE,22,0.0,0.0,90,0.00,SCT,,0.00,WeatherDisplay:10.37,2013-11-30 00:28:00,
2013-11-29 19:33:00,23.7,21.5,30.60,NNE,22,0.0,0.0,91,0.00,SCT,,0.00,WeatherDisplay:10.37,2013-11-30 00:33:00,
2013-11-29 19:38:00,23.5,21.3,30.60,NNE,22,0.0,0.0,91,0.00,SCT,,0.00,WeatherDisplay:10.37,2013-11-30 00:38:00,
2013-11-29 19:43:00,23.4,21.4,30.60,NNE,22,0.0,0.0,92,0.00,SCT,,0.00,WeatherDisplay:10.37,2013-11-30 00:43:00,
2013-11-29 19:48:00,23.4,21.4,30.60,NNE,22,0.0,0.0,92,0.00,SCT,,0.00,WeatherDisplay:10.37,2013-11-30 00:48:00,
2013-11-29 19:53:00,23.2,21.2,30.60,NNE,22,0.0,0.0,92,0.00,SCT,,0.00,WeatherDisplay:10.37,2013-11-30 00:53:00,
2013-11-29 19:58:00,23.2,21.2,30.60,NNE,22,0.0,0.0,92,0.00,SCT,,0.00,WeatherDisplay:10.37,2013-11-30 00:58:00,
2013-11-29 20:03:00,22.8,20.8,30.59,NNE,22,0.0,0.0,92,0.00,SCT,,0.00,WeatherDisplay:10.37,2013-11-30 01:03:00,
2013-11-29 20:08:00,22.6,20.9,30.59,NNE,22,0.0,0.0,93,0.00,SCT,,0.00,WeatherDisplay:10.37,2013-11-30 01:08:00,
2013-11-29 20:13:00,22.5,20.8,30.59,NNE,22,0.0,0.0,93,0.00,SCT,,0.00,WeatherDisplay:10.37,2013-11-30 01:13:00,
2013-11-29 20:18:00,22.6,20.9,30.59,NNE,22,0.0,0.0,93,0.00,SCT,,0.00,WeatherDisplay:10.37,2013-11-30 01:18:00,
2013-11-29 20:23:00,22.5,20.8,30.59,NNE,22,0.0,0.0,93,0.00,SCT,,0.00,WeatherDisplay:10.37,2013-11-30 01:23:00,
2013-11-29 20:28:00,22.1,20.6,30.59,NNE,22,0.0,0.0,94,0.00,SCT,,0.00,WeatherDisplay:10.37,2013-11-30 01:28:00,
2013-11-29 20:33:00,22.6,20.6,30.59,NNE,22,0.0,0.0,92,0.00,SCT,,0.00,WeatherDisplay:10.37,2013-11-30 01:33:00,
2013-11-29 20:38:00,22.1,20.6,30.59,NNE,22,2.5,2.7,94,0.00,SCT,,0.00,WeatherDisplay:10.37,2013-11-30 01:38:00,
2013-11-29 20:43:00,22.1,20.6,30.59,NNE,22,0.0,0.0,94,0.00,SCT,,0.00,WeatherDisplay:10.37,2013-11-30 01:43:00,
2013-11-29 20:48:00,21.9,20.2,30.59,NNE,22,0.0,0.0,93,0.00,SCT,,0.00,WeatherDisplay:10.37,2013-11-30 01:48:00,
2013-11-29 20:53:00,21.6,19.9,30.59,NNE,22,0.0,0.0,93,0.00,SCT,,0.00,WeatherDisplay:10.37,2013-11-30 01:53:00,
2013-11-29 20:58:00,21.6,20.1,30.59,NNE,22,0.0,0.0,94,0.00,SCT,,0.00,WeatherDisplay:10.37,2013-11-30 01:58:00,
2013-11-29 21:03:00,21.2,20.0,30.59,NNE,22,0.0,2.3,95,0.00,SCT,,0.00,WeatherDisplay:10.37,2013-11-30 02:03:00,
2013-11-29 21:08:00,21.0,19.8,30.59,NNE,22,0.0,0.0,95,0.00,SCT,,0.00,WeatherDisplay:10.37,2013-11-30 02:08:00,
2013-11-29 21:13:00,20.8,19.6,30.59,NNE,22,0.0,0.0,95,0.00,SCT,,0.00,WeatherDisplay:10.37,2013-11-30 02:13:00,
2013-11-29 21:18:00,20.8,19.8,30.59,NNE,22,0.0,2.3,96,0.00,SCT,,0.00,WeatherDisplay:10.37,2013-11-30 02:18:00,
2013-11-29 21:23:00,20.5,19.5,30.59,NNE,22,0.0,0.0,96,0.00,SCT,,0.00,WeatherDisplay:10.37,2013-11-30 02:23:00,
2013-11-29 21:28:00,20.1,19.1,30.58,NNE,22,0.0,0.0,96,0.00,SCT,,0.00,WeatherDisplay:10.37,2013-11-30 02:28:00,
2013-11-29 21:33:00,20.3,19.6,30.58,NNE,22,0.0,0.0,97,0.00,SCT,,0.00,WeatherDisplay:10.37,2013-11-30 02:33:00,
2013-11-29 21:38:00,20.3,19.6,30.58,NNE,22,0.0,0.0,97,0.00,SCT,,0.00,WeatherDisplay:10.37,2013-11-30 02:38:00,
2013-11-29 21:43:00,20.1,19.4,30.58,NNE,22,0.0,0.0,97,0.00,SCT,,0.00,WeatherDisplay:10.37,2013-11-30 02:43:00,
2013-11-29 21:48:00,20.1,19.4,30.58,NNE,22,0.0,0.0,97,0.00,SCT,,0.00,WeatherDisplay:10.37,2013-11-30 02:48:00,
2013-11-29 21:53:00,20.1,19.4,30.59,NNE,22,0.0,0.0,97,0.00,SCT,,0.00,WeatherDisplay:10.37,2013-11-30 02:53:00,
2013-11-29 21:58:00,19.9,19.2,30.59,NNE,22,0.0,0.0,97,0.00,SCT,,0.00,WeatherDisplay:10.37,2013-11-30 02:58:00,
2013-11-29 22:03:00,19.6,19.1,30.59,NNE,22,0.0,0.0,98,0.00,BKN,,0.00,WeatherDisplay:10.37,2013-11-30 03:03:00,
2013-11-29 22:08:00,19.8,19.3,30.59,NNE,22,0.0,0.0,98,0.00,BKN,,0.00,WeatherDisplay:10.37,2013-11-30 03:08:00,
2013-11-29 22:13:00,19.8,19.3,30.59,NNE,22,0.0,0.0,98,0.00,BKN,,0.00,WeatherDisplay:10.37,2013-11-30 03:13:00,
2013-11-29 22:18:00,19.8,19.3,30.59,NNE,22,0.0,0.0,98,0.00,BKN,,0.00,WeatherDisplay:10.37,2013-11-30 03:18:00,
2013-11-29 22:23:00,19.6,18.9,30.59,NNE,22,0.0,0.0,97,0.00,BKN,,0.00,WeatherDisplay:10.37,2013-11-30 03:23:00,
2013-11-29 22:28:00,19.2,18.5,30.58,NNE,22,0.0,0.0,97,0.00,BKN,,0.00,WeatherDisplay:10.37,2013-11-30 03:28:00,
2013-11-29 22:33:00,19.2,18.7,30.58,NNE,22,0.0,0.0,98,0.00,BKN,,0.00,WeatherDisplay:10.37,2013-11-30 03:33:00,
2013-11-29 22:38:00,19.6,19.1,30.58,NNE,22,0.0,0.0,98,0.00,BKN,,0.00,WeatherDisplay:10.37,2013-11-30 03:38:00,
2013-11-29 22:43:00,19.2,18.5,30.58,NNE,22,0.0,0.0,97,0.00,BKN,,0.00,WeatherDisplay:10.37,2013-11-30 03:43:00,
2013-11-29 22:48:00,19.2,18.7,30.58,NNE,22,0.0,0.0,98,0.00,BKN,,0.00,WeatherDisplay:10.37,2013-11-30 03:48:00,
2013-11-29 22:53:00,19.0,18.5,30.58,NNE,22,0.0,0.0,98,0.00,BKN,,0.00,WeatherDisplay:10.37,2013-11-30 03:53:00,
2013-11-29 22:58:00,18.9,18.4,30.58,NNE,22,0.0,0.0,98,0.00,BKN,,0.00,WeatherDisplay:10.37,2013-11-30 03:58:00,
2013-11-29 23:03:00,18.5,18.0,30.57,NNE,22,0.0,0.0,98,0.00,OVC,,0.00,WeatherDisplay:10.37,2013-11-30 04:03:00,
2013-11-29 23:08:00,18.9,18.7,30.57,NNE,22,0.0,0.0,99,0.00,OVC,,0.00,WeatherDisplay:10.37,2013-11-30 04:08:00,
2013-11-29 23:13:00,18.9,18.7,30.57,NNE,22,0.0,0.0,99,0.00,OVC,,0.00,WeatherDisplay:10.37,2013-11-30 04:13:00,
2013-11-29 23:18:00,18.9,18.7,30.58,NNE,22,0.0,0.0,99,0.00,OVC,,0.00,WeatherDisplay:10.37,2013-11-30 04:18:00,
2013-11-29 23:23:00,19.0,18.5,30.58,NNE,22,0.0,0.0,98,0.00,OVC,,0.00,WeatherDisplay:10.37,2013-11-30 04:23:00,
2013-11-29 23:28:00,18.9,18.4,30.58,NNE,22,0.0,0.0,98,0.00,OVC,,0.00,WeatherDisplay:10.37,2013-11-30 04:28:00,
2013-11-29 23:33:00,18.9,18.4,30.58,NNE,22,0.0,0.0,98,0.00,OVC,,0.00,WeatherDisplay:10.37,2013-11-30 04:33:00,
2013-11-29 23:38:00,19.2,18.7,30.58,NNE,22,0.1,2.3,98,0.00,OVC,,0.00,WeatherDisplay:10.37,2013-11-30 04:38:00,
2013-11-29 23:43:00,19.0,18.5,30.58,NNE,22,0.0,0.0,98,0.00,OVC,,0.00,WeatherDisplay:10.37,2013-11-30 04:43:00,
2013-11-29 23:48:00,18.9,18.4,30.58,NNE,22,0.0,0.0,98,0.00,OVC,,0.00,WeatherDisplay:10.37,2013-11-30 04:48:00,
2013-11-29 23:53:00,18.7,18.2,30.58,NNE,22,0.0,0.0,98,0.00,OVC,,0.00,WeatherDisplay:10.37,2013-11-30 04:53:00,
2013-11-29 23:58:00,18.9,18.4,30.58,NNE,22,0.0,0.0,98,0.00,OVC,,0.00,WeatherDisplay:10.37,2013-11-30 04:58:00,